Time;durP1;ratioP1;P1;durP2;ratioP2;P2;SDS_P1;SDS_P2;PMS_P1;PMS_P2;Temp;Humidity;BMP_temperature;BMP_pressure;BME280_temperature;BME280_humidity;BME280_pressure;Samples;Min_cycle;Max_cycle;Signal;HPM_P1;HPM_P2
2023/12/04 00:01:29;;;;;;;13.25;6.88;;;-3.90;98.50;;;;;;5113654;28;20026;-76
2023/12/04 00:03:55;;;;;;;8.40;6.72;;;-3.90;98.40;;;;;;5113455;28;20019;-77
2023/12/04 00:06:22;;;;;;;11.32;5.82;;;-4.00;98.40;;;;;;5095151;28;20016;-76
2023/12/04 00:08:48;;;;;;;14.90;6.78;;;-4.00;98.20;;;;;;5113130;27;20357;-77
2023/12/04 00:11:14;;;;;;;13.32;6.35;;;-4.00;98.10;;;;;;5118689;27;20024;-77
2023/12/04 00:13:39;;;;;;;10.65;6.53;;;-4.00;98.20;;;;;;5094878;28;20023;-78
2023/12/04 00:16:06;;;;;;;10.88;7.47;;;-4.00;98.40;;;;;;5104599;28;20034;-78
2023/12/04 00:18:32;;;;;;;11.70;6.65;;;-4.00;98.40;;;;;;5113358;28;20023;-77
2023/12/04 00:20:58;;;;;;;10.70;6.82;;;-4.00;98.50;;;;;;5111662;28;20023;-77
2023/12/04 00:23:23;;;;;;;11.82;6.88;;;-4.00;98.60;;;;;;5111557;28;20036;-78
2023/12/04 00:25:49;;;;;;;12.13;6.50;;;-4.00;98.60;;;;;;5094675;28;20027;-76
2023/12/04 00:28:15;;;;;;;13.02;7.30;;;-4.00;98.70;;;;;;5114082;28;20062;-79
2023/12/04 00:30:41;;;;;;;10.18;6.47;;;-4.00;98.80;;;;;;5094438;28;20384;-79
2023/12/04 00:33:07;;;;;;;10.10;5.85;;;-4.00;98.80;;;;;;5113088;28;20107;-79
2023/12/04 00:35:33;;;;;;;11.90;7.97;;;-3.90;98.80;;;;;;5113610;28;20073;-79
2023/12/04 00:37:59;;;;;;;11.07;6.80;;;-3.90;98.80;;;;;;5115574;28;20066;-77
2023/12/04 00:40:25;;;;;;;14.00;8.80;;;-3.90;98.70;;;;;;5116445;28;20098;-79
2023/12/04 00:42:51;;;;;;;14.93;7.43;;;-3.90;98.80;;;;;;5114424;28;20429;-79
2023/12/04 00:45:16;;;;;;;11.30;6.10;;;-3.90;98.70;;;;;;5113614;28;20047;-77
2023/12/04 00:47:42;;;;;;;11.30;6.95;;;-3.90;98.70;;;;;;5111045;28;20024;-78
2023/12/04 00:50:08;;;;;;;11.30;6.63;;;-3.90;98.80;;;;;;5109952;28;20024;-78
2023/12/04 00:52:34;;;;;;;10.63;6.22;;;-3.90;99.00;;;;;;5110178;28;21481;-77
2023/12/04 00:55:00;;;;;;;11.85;7.47;;;-3.90;99.00;;;;;;5101539;28;20031;-77
2023/12/04 00:57:26;;;;;;;12.38;8.27;;;-3.90;98.70;;;;;;5104959;28;20028;-78
2023/12/04 00:59:52;;;;;;;13.63;8.00;;;-3.90;98.60;;;;;;5088062;28;20034;-78
2023/12/04 01:02:17;;;;;;;14.13;7.70;;;-3.90;98.70;;;;;;5094246;28;20028;-77
2023/12/04 01:04:43;;;;;;;11.95;7.82;;;-3.90;98.80;;;;;;5112597;28;20027;-79
2023/12/04 01:07:09;;;;;;;10.25;6.68;;;-3.90;99.00;;;;;;5097814;28;20073;-79
2023/12/04 01:09:36;;;;;;;11.30;7.18;;;-3.90;99.00;;;;;;5112429;28;20020;-78
2023/12/04 01:12:01;;;;;;;10.60;7.37;;;-3.90;99.10;;;;;;5110674;28;20073;-78
2023/12/04 01:14:27;;;;;;;13.77;6.43;;;-3.80;99.10;;;;;;5113046;28;20024;-77
2023/12/04 01:16:53;;;;;;;11.00;6.00;;;-3.80;99.00;;;;;;5094284;28;20062;-77
2023/12/04 01:19:19;;;;;;;12.82;7.93;;;-3.80;99.00;;;;;;5112523;28;20016;-79
2023/12/04 01:21:45;;;;;;;11.02;6.10;;;-3.80;98.90;;;;;;5112412;28;20088;-77
2023/12/04 01:24:11;;;;;;;12.82;8.23;;;-3.80;98.60;;;;;;5097877;28;20020;-78
2023/12/04 01:26:37;;;;;;;11.23;6.50;;;-3.80;98.50;;;;;;5112423;28;20015;-79
2023/12/04 01:29:03;;;;;;;12.25;6.97;;;-3.90;98.30;;;;;;5111429;28;20020;-79
2023/12/04 01:31:29;;;;;;;10.20;6.18;;;-3.90;98.40;;;;;;5112614;28;20038;-77
2023/12/04 01:33:55;;;;;;;12.02;7.38;;;-3.90;98.50;;;;;;5112365;28;20019;-79
2023/12/04 01:36:21;;;;;;;13.55;7.30;;;-3.90;98.70;;;;;;5112332;28;20016;-80
2023/12/04 01:38:46;;;;;;;12.52;7.40;;;-3.90;98.50;;;;;;5111694;28;20382;-78
2023/12/04 01:41:12;;;;;;;13.13;6.85;;;-3.90;98.50;;;;;;5103814;28;20024;-78
2023/12/04 01:43:38;;;;;;;11.57;7.05;;;-3.90;98.60;;;;;;5112108;28;20051;-78
2023/12/04 01:46:04;;;;;;;9.57;7.15;;;-3.90;98.50;;;;;;5107883;28;20098;-76
2023/12/04 01:48:30;;;;;;;8.77;5.53;;;-3.90;98.30;;;;;;5112157;28;20503;-78
2023/12/04 01:50:58;;;;;;;12.27;7.22;;;-3.90;98.50;;;;;;5109634;28;20020;-78
2023/12/04 01:53:24;;;;;;;16.67;7.32;;;-3.90;98.30;;;;;;5115839;28;20022;-76
2023/12/04 01:55:50;;;;;;;10.93;6.65;;;-4.00;98.20;;;;;;5116013;28;20027;-78
2023/12/04 01:58:17;;;;;;;13.60;7.77;;;-4.00;98.20;;;;;;5110076;28;20020;-78
2023/12/04 02:00:43;;;;;;;11.23;7.65;;;-4.00;98.20;;;;;;5116150;28;20293;-79
2023/12/04 02:03:09;;;;;;;10.73;7.22;;;-4.00;98.20;;;;;;5115852;28;20032;-78
2023/12/04 02:05:37;;;;;;;10.98;6.75;;;-4.00;98.30;;;;;;5115761;28;20046;-77
2023/12/04 02:08:04;;;;;;;11.82;7.00;;;-4.10;98.30;;;;;;5096987;28;20424;-76
2023/12/04 02:10:30;;;;;;;11.77;7.32;;;-4.10;98.30;;;;;;5113254;28;20016;-77
2023/12/04 02:12:56;;;;;;;11.00;7.20;;;-4.10;97.90;;;;;;5088522;28;20523;-78
2023/12/04 02:15:22;;;;;;;11.75;6.60;;;-4.20;97.80;;;;;;5115922;28;20103;-78
2023/12/04 02:17:48;;;;;;;12.80;8.23;;;-4.20;97.80;;;;;;5115824;28;20443;-79
2023/12/04 02:20:14;;;;;;;13.20;6.80;;;-4.20;97.80;;;;;;5116597;28;20501;-78
2023/12/04 02:22:41;;;;;;;12.60;7.57;;;-4.30;97.90;;;;;;5116143;28;20031;-79
2023/12/04 02:25:09;;;;;;;13.45;8.05;;;-4.30;97.90;;;;;;5116176;28;20020;-78
2023/12/04 02:27:45;;;;;;;8.30;5.40;;;-4.30;97.50;;;;;;5106683;28;20020;-79
2023/12/04 02:30:13;;;;;;;14.13;8.30;;;-4.40;97.60;;;;;;5115544;28;20047;-77
2023/12/04 02:32:45;;;;;;;13.05;8.00;;;-4.40;97.60;;;;;;5123649;27;20019;-76
2023/12/04 02:35:12;;;;;;;15.50;8.80;;;-4.50;97.50;;;;;;5114532;27;20029;-78
2023/12/04 02:37:40;;;;;;;10.70;6.65;;;-4.50;97.70;;;;;;5108158;28;20019;-78
2023/12/04 02:40:06;;;;;;;10.93;6.80;;;-4.50;97.80;;;;;;5115461;28;20390;-79
2023/12/04 02:42:33;;;;;;;15.50;7.53;;;-4.60;98.00;;;;;;5115191;28;20028;-76
2023/12/04 02:44:58;;;;;;;11.40;6.53;;;-4.50;97.90;;;;;;5105584;28;20396;-77
2023/12/04 02:47:24;;;;;;;14.63;7.93;;;-4.60;97.80;;;;;;5113971;28;20024;-79
2023/12/04 02:49:51;;;;;;;17.92;9.88;;;-4.60;97.50;;;;;;5107003;28;20027;-79
2023/12/04 02:52:16;;;;;;;16.60;9.80;;;-4.70;97.20;;;;;;5120693;28;20016;-78
2023/12/04 02:54:42;;;;;;;13.98;9.00;;;-4.70;97.20;;;;;;5113735;28;20022;-79
2023/12/04 02:57:08;;;;;;;18.38;9.95;;;-4.80;97.40;;;;;;5106478;28;20021;-79
2023/12/04 02:59:34;;;;;;;11.40;7.00;;;-4.80;97.60;;;;;;5107276;28;20512;-77
2023/12/04 03:02:00;;;;;;;11.25;7.38;;;-4.80;97.60;;;;;;5113750;28;20078;-78
2023/12/04 03:04:29;;;;;;;14.27;8.68;;;-4.80;97.50;;;;;;5113645;28;20031;-81
2023/12/04 03:06:56;;;;;;;10.25;6.95;;;-4.80;97.20;;;;;;5095121;28;20027;-78
2023/12/04 03:09:22;;;;;;;13.32;7.18;;;-4.90;97.30;;;;;;5110673;28;20019;-80
2023/12/04 03:11:47;;;;;;;12.13;7.57;;;-4.90;97.40;;;;;;5109727;28;20102;-77
2023/12/04 03:14:14;;;;;;;12.55;7.32;;;-4.90;97.50;;;;;;5095248;28;20110;-77
2023/12/04 03:16:40;;;;;;;10.40;8.10;;;-4.90;97.90;;;;;;5094938;28;20028;-76
2023/12/04 03:19:06;;;;;;;15.93;8.68;;;-4.90;98.10;;;;;;5113824;28;20485;-78
2023/12/04 03:21:32;;;;;;;14.57;8.88;;;-4.90;97.90;;;;;;5096246;28;20038;-77
2023/12/04 03:23:58;;;;;;;14.82;8.75;;;-4.90;97.80;;;;;;5117686;28;20071;-78
2023/12/04 03:26:24;;;;;;;19.05;9.57;;;-4.90;97.70;;;;;;5095444;28;20024;-78
2023/12/04 03:28:49;;;;;;;18.35;10.10;;;-4.90;97.80;;;;;;5101743;28;20023;-78
2023/12/04 03:31:15;;;;;;;16.75;9.60;;;-4.90;97.60;;;;;;5115874;28;20034;-78
2023/12/04 03:33:41;;;;;;;13.57;7.60;;;-4.80;97.60;;;;;;5098857;28;20020;-79
2023/12/04 03:36:07;;;;;;;16.25;8.70;;;-4.90;97.50;;;;;;5095329;28;20024;-79
2023/12/04 03:38:33;;;;;;;15.50;8.88;;;-4.90;97.70;;;;;;5114953;28;20034;-79
2023/12/04 03:40:59;;;;;;;18.83;9.55;;;-4.90;97.90;;;;;;5115035;28;20106;-79
2023/12/04 03:43:25;;;;;;;12.73;8.20;;;-4.80;98.00;;;;;;5049259;28;1334687;-79
2023/12/04 03:45:51;;;;;;;14.38;7.65;;;-4.80;98.10;;;;;;5115269;28;20027;-77
2023/12/04 03:48:17;;;;;;;13.35;7.68;;;-4.70;98.30;;;;;;5096351;28;20027;-80
2023/12/04 03:50:43;;;;;;;13.55;8.55;;;-4.70;98.60;;;;;;5095830;28;20407;-80
2023/12/04 03:53:08;;;;;;;14.50;9.00;;;-4.70;98.80;;;;;;5112502;28;20019;-79
2023/12/04 03:55:34;;;;;;;15.23;8.38;;;-4.70;98.90;;;;;;5106680;28;20020;-80
2023/12/04 03:58:00;;;;;;;15.02;7.97;;;-4.70;98.90;;;;;;5099589;28;20048;-78
2023/12/04 04:00:26;;;;;;;17.90;8.30;;;-4.70;99.00;;;;;;5113911;28;20027;-77
2023/12/04 04:02:52;;;;;;;15.90;8.82;;;-4.70;98.90;;;;;;5113715;28;20065;-80
2023/12/04 04:05:18;;;;;;;14.15;7.95;;;-4.70;98.70;;;;;;5113774;28;20016;-78
2023/12/04 04:07:43;;;;;;;15.95;8.55;;;-4.70;98.60;;;;;;5112633;28;20047;-79
2023/12/04 04:10:09;;;;;;;18.10;9.73;;;-4.70;98.60;;;;;;5110012;28;20024;-79
2023/12/04 04:12:35;;;;;;;15.00;9.32;;;-4.70;98.60;;;;;;5112735;28;20483;-79
2023/12/04 04:15:01;;;;;;;9.82;5.88;;;-4.70;98.50;;;;;;5113379;28;20051;-80
2023/12/04 04:17:27;;;;;;;19.17;12.43;;;-4.70;98.50;;;;;;5105429;28;20015;-79
2023/12/04 04:19:54;;;;;;;18.35;10.55;;;-4.70;98.60;;;;;;5113147;28;20024;-77
2023/12/04 04:22:20;;;;;;;8.85;6.18;;;-4.70;98.70;;;;;;5094805;28;20062;-79
2023/12/04 04:24:47;;;;;;;15.13;9.30;;;-4.70;98.70;;;;;;5111620;28;20027;-79
2023/12/04 04:27:13;;;;;;;14.07;8.68;;;-4.80;98.80;;;;;;5110186;28;20027;-79
2023/12/04 04:29:39;;;;;;;16.50;10.23;;;-4.70;98.80;;;;;;5094625;28;20020;-79
2023/12/04 04:32:05;;;;;;;12.90;7.32;;;-4.80;98.70;;;;;;5094295;28;20101;-80
2023/12/04 04:34:31;;;;;;;16.17;10.43;;;-4.70;98.60;;;;;;5112977;28;20020;-78
2023/12/04 04:36:57;;;;;;;19.40;11.15;;;-4.80;98.60;;;;;;5112990;28;20034;-79
2023/12/04 04:39:23;;;;;;;19.23;11.02;;;-4.80;98.70;;;;;;5112911;28;20016;-80
2023/12/04 04:41:49;;;;;;;16.48;10.18;;;-4.80;98.70;;;;;;5094338;28;20508;-78
2023/12/04 04:44:15;;;;;;;16.95;11.38;;;-4.80;98.70;;;;;;5112813;28;20040;-79
2023/12/04 04:46:41;;;;;;;14.40;8.48;;;-4.80;98.70;;;;;;5095126;28;20034;-77
2023/12/04 04:49:07;;;;;;;17.88;10.45;;;-4.80;98.80;;;;;;5112898;28;20027;-78
2023/12/04 04:51:34;;;;;;;14.13;8.30;;;-4.80;98.80;;;;;;5112617;28;20039;-79
2023/12/04 04:54:03;;;;;;;18.48;10.27;;;-4.70;98.80;;;;;;5112922;28;20030;-79
2023/12/04 04:56:30;;;;;;;16.48;9.57;;;-4.70;98.80;;;;;;5096511;28;20028;-78
2023/12/04 04:58:56;;;;;;;19.73;11.60;;;-4.70;98.80;;;;;;5100623;28;20024;-80
2023/12/04 05:01:22;;;;;;;13.18;8.40;;;-4.70;98.70;;;;;;5112521;28;20022;-77
2023/12/04 05:03:48;;;;;;;18.85;10.48;;;-4.70;98.70;;;;;;5112400;28;20478;-79
2023/12/04 05:06:14;;;;;;;23.58;13.13;;;-4.70;98.70;;;;;;5112379;28;20023;-79
2023/12/04 05:08:40;;;;;;;18.00;11.23;;;-4.70;98.70;;;;;;5111171;28;20019;-79
2023/12/04 05:11:06;;;;;;;17.98;11.27;;;-4.70;98.70;;;;;;5112933;28;20028;-79
2023/12/04 05:13:32;;;;;;;21.52;10.60;;;-4.60;98.70;;;;;;5095286;28;20051;-79
2023/12/04 05:15:57;;;;;;;17.92;10.52;;;-4.70;98.60;;;;;;5108739;28;20020;-79
2023/12/04 05:18:23;;;;;;;17.67;10.98;;;-4.70;98.60;;;;;;5112036;28;20016;-79
2023/12/04 05:20:49;;;;;;;19.58;9.73;;;-4.70;98.70;;;;;;5112195;28;20019;-79
2023/12/04 05:23:15;;;;;;;20.67;12.75;;;-4.70;98.80;;;;;;5117224;27;20039;-80
2023/12/04 05:25:41;;;;;;;16.35;10.70;;;-4.70;99.00;;;;;;5113704;27;20019;-78
2023/12/04 05:28:07;;;;;;;18.13;11.55;;;-4.60;98.90;;;;;;5106834;28;20043;-79
2023/12/04 05:30:32;;;;;;;14.77;9.50;;;-4.60;98.60;;;;;;5112252;28;20418;-81
2023/12/04 05:32:58;;;;;;;17.02;9.98;;;-4.60;98.70;;;;;;5111204;28;20079;-78
2023/12/04 05:35:24;;;;;;;19.60;10.85;;;-4.60;98.70;;;;;;5092839;28;20089;-78
2023/12/04 05:37:50;;;;;;;20.88;9.85;;;-4.60;98.50;;;;;;5093150;28;20019;-79
2023/12/04 05:40:17;;;;;;;24.05;11.43;;;-4.60;98.60;;;;;;5105895;28;20117;-81
2023/12/04 05:42:42;;;;;;;18.90;11.00;;;-4.60;98.70;;;;;;5111721;28;20528;-79
2023/12/04 05:45:09;;;;;;;19.13;10.00;;;-4.60;98.60;;;;;;5111741;28;20067;-78
2023/12/04 05:47:35;;;;;;;24.65;11.25;;;-4.60;98.70;;;;;;5099708;28;20028;-79
2023/12/04 05:50:01;;;;;;;22.75;11.55;;;-4.60;98.40;;;;;;5082862;28;20023;-78
2023/12/04 05:52:26;;;;;;;17.25;10.38;;;-4.60;98.40;;;;;;5087947;28;20062;-78
2023/12/04 05:54:52;;;;;;;16.85;9.82;;;-4.50;98.50;;;;;;5093684;28;20040;-76
2023/12/04 05:57:18;;;;;;;20.50;11.65;;;-4.60;98.40;;;;;;5084794;28;20074;-79
2023/12/04 05:59:44;;;;;;;16.35;8.50;;;-4.60;98.40;;;;;;5106438;28;20118;-78
2023/12/04 06:02:10;;;;;;;18.05;9.65;;;-4.60;98.40;;;;;;5111873;28;20028;-78
2023/12/04 06:04:36;;;;;;;17.95;10.43;;;-4.60;98.50;;;;;;5112004;28;20449;-78
2023/12/04 06:07:02;;;;;;;15.75;10.68;;;-4.60;98.40;;;;;;5111709;28;20016;-79
2023/12/04 06:09:28;;;;;;;18.13;11.30;;;-4.60;98.50;;;;;;5095083;28;20477;-79
2023/12/04 06:11:54;;;;;;;18.48;11.80;;;-4.60;98.60;;;;;;5111651;28;20023;-80
2023/12/04 06:14:20;;;;;;;19.13;9.65;;;-4.60;98.60;;;;;;5111618;28;20455;-79
2023/12/04 06:16:46;;;;;;;20.05;12.45;;;-4.50;98.70;;;;;;5111432;28;20023;-79
2023/12/04 06:19:11;;;;;;;21.83;13.50;;;-4.50;98.60;;;;;;5097115;28;20034;-79
2023/12/04 06:21:37;;;;;;;26.08;10.43;;;-4.50;98.50;;;;;;5099017;28;20031;-78
2023/12/04 06:24:05;;;;;;;16.95;9.38;;;-4.50;98.30;;;;;;5093494;28;20039;-81
2023/12/04 06:26:33;;;;;;;21.60;11.90;;;-4.50;98.00;;;;;;5130413;28;20079;-81
2023/12/04 06:29:00;;;;;;;19.77;11.77;;;-4.50;97.70;;;;;;5117700;28;20113;-80
2023/12/04 06:31:26;;;;;;;19.23;9.82;;;-4.50;97.90;;;;;;5118074;28;20051;-81
2023/12/04 06:33:52;;;;;;;23.10;11.82;;;-4.50;98.00;;;;;;5096519;28;20030;-81
2023/12/04 06:36:19;;;;;;;20.52;9.60;;;-4.50;98.20;;;;;;5094966;28;20550;-80
2023/12/04 06:38:47;;;;;;;23.65;14.73;;;-4.50;98.20;;;;;;5115352;28;20034;-81
2023/12/04 06:41:14;;;;;;;25.27;11.52;;;-4.50;97.60;;;;;;5126018;28;20065;-81
2023/12/04 06:43:43;;;;;;;24.25;15.82;;;-4.50;97.70;;;;;;5123237;28;20055;-79
2023/12/04 06:46:12;;;;;;;19.77;10.55;;;-4.50;97.80;;;;;;5116595;28;20065;-80
2023/12/04 06:48:38;;;;;;;15.95;8.48;;;-4.50;97.80;;;;;;5097516;28;20038;-80
2023/12/04 06:51:05;;;;;;;15.55;9.95;;;-4.50;97.90;;;;;;5115243;28;20011;-80
2023/12/04 06:53:31;;;;;;;15.68;9.65;;;-4.50;97.90;;;;;;5115304;28;20020;-79
2023/12/04 06:55:57;;;;;;;17.73;9.65;;;-4.50;97.90;;;;;;5115129;28;20089;-79
2023/12/04 06:58:23;;;;;;;18.88;10.15;;;-4.50;97.90;;;;;;5080434;28;20016;-82
2023/12/04 07:00:49;;;;;;;22.40;10.55;;;-4.50;97.80;;;;;;5115051;28;20575;-80
2023/12/04 07:03:15;;;;;;;13.85;8.20;;;-4.40;97.90;;;;;;5114794;28;20039;-82
2023/12/04 07:05:41;;;;;;;20.70;12.32;;;-4.40;97.90;;;;;;5114929;28;20007;-81
2023/12/04 07:08:07;;;;;;;24.27;11.18;;;-4.40;97.90;;;;;;5115452;28;20429;-81
2023/12/04 07:10:33;;;;;;;18.05;10.88;;;-4.40;97.80;;;;;;5097124;28;20115;-82
2023/12/04 07:12:58;;;;;;;14.02;10.18;;;-4.40;97.60;;;;;;5111575;28;20054;-83
2023/12/04 07:15:24;;;;;;;23.40;12.40;;;-4.40;97.30;;;;;;5096325;28;20068;-83
2023/12/04 07:17:51;;;;;;;20.00;12.35;;;-4.40;97.40;;;;;;5115197;28;20024;-83
2023/12/04 07:20:17;;;;;;;15.20;8.75;;;-4.40;97.40;;;;;;5115321;28;20160;-83
2023/12/04 07:22:43;;;;;;;14.68;9.70;;;-4.50;97.40;;;;;;5114978;28;20539;-82
2023/12/04 07:25:09;;;;;;;21.13;11.77;;;-4.40;97.50;;;;;;5114966;28;20400;-82
2023/12/04 07:27:35;;;;;;;18.55;11.85;;;-4.40;97.20;;;;;;5114690;28;20024;-81
2023/12/04 07:30:01;;;;;;;23.58;10.82;;;-4.40;97.10;;;;;;5114598;28;20026;-82
2023/12/04 07:32:27;;;;;;;13.82;8.18;;;-4.40;97.30;;;;;;5114608;28;20125;-83
2023/12/04 07:34:53;;;;;;;15.77;9.50;;;-4.40;97.40;;;;;;5114690;28;20136;-82
2023/12/04 07:37:18;;;;;;;30.98;11.65;;;-4.40;97.40;;;;;;5095201;28;20027;-80
2023/12/04 07:39:46;;;;;;;23.42;12.32;;;-4.40;97.40;;;;;;5098118;28;20073;-82
2023/12/04 07:42:12;;;;;;;26.05;12.77;;;-4.40;97.40;;;;;;5114349;28;20031;-83
2023/12/04 07:44:38;;;;;;;21.13;12.48;;;-4.40;97.50;;;;;;5116104;28;20044;-78
2023/12/04 07:47:04;;;;;;;19.83;10.52;;;-4.40;97.80;;;;;;5114055;28;20030;-83
2023/12/04 07:49:30;;;;;;;16.17;10.55;;;-4.40;97.70;;;;;;5113984;28;20047;-81
2023/12/04 07:51:55;;;;;;;20.95;12.40;;;-4.40;97.90;;;;;;5096625;28;20114;-80
2023/12/04 07:54:25;;;;;;;15.18;10.25;;;-4.40;97.80;;;;;;5115785;28;20023;-85
2023/12/04 07:56:53;;;;;;;20.50;10.85;;;-4.40;97.80;;;;;;5118149;28;20015;-84
2023/12/04 07:59:19;;;;;;;17.00;9.82;;;-4.40;98.00;;;;;;5097481;28;20055;-83
2023/12/04 08:01:45;;;;;;;22.02;11.70;;;-4.40;98.20;;;;;;5116446;28;20051;-84
2023/12/04 08:04:11;;;;;;;20.02;11.48;;;-4.40;98.20;;;;;;5116320;28;20061;-81
2023/12/04 08:06:37;;;;;;;16.80;8.07;;;-4.40;98.50;;;;;;5115566;28;20049;-82
2023/12/04 08:09:05;;;;;;;21.15;12.35;;;-4.40;98.60;;;;;;5112997;28;20032;-82
2023/12/04 08:11:31;;;;;;;16.42;9.77;;;-4.40;98.50;;;;;;5120274;28;20381;-83
2023/12/04 08:13:57;;;;;;;22.90;11.75;;;-4.30;98.50;;;;;;5086689;28;20030;-80
2023/12/04 08:16:23;;;;;;;17.83;11.52;;;-4.30;98.30;;;;;;5097076;28;20099;-84
2023/12/04 08:18:49;;;;;;;28.55;15.02;;;-4.30;98.40;;;;;;5110789;28;20436;-81
2023/12/04 08:21:15;;;;;;;17.45;10.48;;;-4.30;98.30;;;;;;5123157;28;20023;-84
2023/12/04 08:23:41;;;;;;;22.38;10.88;;;-4.30;98.10;;;;;;5119712;28;20024;-83
2023/12/04 08:26:07;;;;;;;23.15;13.10;;;-4.20;97.90;;;;;;5117779;28;20434;-87
2023/12/04 08:28:35;;;;;;;21.67;12.65;;;-4.30;97.60;;;;;;5093168;28;20024;-85
2023/12/04 08:31:01;;;;;;;21.38;13.50;;;-4.30;97.50;;;;;;5109430;28;20020;-80
2023/12/04 08:33:27;;;;;;;23.38;13.45;;;-4.30;97.30;;;;;;5105711;28;20027;-84
2023/12/04 08:35:53;;;;;;;21.63;12.55;;;-4.40;97.30;;;;;;5101486;28;20106;-85
2023/12/04 08:38:18;;;;;;;22.98;13.07;;;-4.40;97.30;;;;;;5115474;28;20022;-85
2023/12/04 08:40:45;;;;;;;24.50;12.75;;;-4.40;97.20;;;;;;5096851;28;20042;-81
2023/12/04 08:43:10;;;;;;;24.92;13.85;;;-4.40;97.30;;;;;;5114988;28;20118;-86
2023/12/04 08:45:36;;;;;;;27.15;12.63;;;-4.30;97.40;;;;;;5114982;28;20106;-82
2023/12/04 08:48:02;;;;;;;19.75;11.60;;;-4.40;97.60;;;;;;5113560;28;20117;-80
2023/12/04 08:50:28;;;;;;;22.27;13.70;;;-4.30;97.70;;;;;;5113349;28;20020;-83
2023/12/04 08:52:54;;;;;;;24.55;14.43;;;-4.30;97.50;;;;;;5114128;28;20079;-82
2023/12/04 08:55:20;;;;;;;19.88;11.48;;;-4.20;97.50;;;;;;5114089;28;20098;-84
2023/12/04 08:57:46;;;;;;;21.40;12.18;;;-4.20;97.80;;;;;;5101195;28;20030;-84
2023/12/04 09:00:13;;;;;;;23.67;12.40;;;-4.10;97.60;;;;;;5097879;28;20043;-83
2023/12/04 09:02:38;;;;;;;28.57;12.60;;;-4.10;97.60;;;;;;5102796;28;20067;-84
2023/12/04 09:05:05;;;;;;;23.20;13.00;;;-4.00;97.60;;;;;;5110439;28;20031;-84
2023/12/04 09:07:31;;;;;;;20.85;12.20;;;-4.00;97.60;;;;;;5095384;28;20036;-82
2023/12/04 09:09:57;;;;;;;23.35;12.95;;;-3.90;97.00;;;;;;5091820;28;20031;-82
2023/12/04 09:12:26;;;;;;;21.92;12.13;;;-3.90;96.80;;;;;;5114136;28;20043;-85
2023/12/04 09:14:52;;;;;;;24.35;11.10;;;-3.90;97.00;;;;;;5095716;28;20055;-85
2023/12/04 09:17:18;;;;;;;24.67;12.68;;;-3.80;97.00;;;;;;5118160;28;20016;-83
2023/12/04 09:19:44;;;;;;;16.88;8.55;;;-3.80;97.00;;;;;;5121037;28;20030;-83
2023/12/04 09:22:10;;;;;;;17.65;11.73;;;-3.80;97.20;;;;;;5127323;28;20039;-84
2023/12/04 09:24:36;;;;;;;29.67;12.97;;;-3.70;97.20;;;;;;5111622;28;20016;-83
2023/12/04 09:27:02;;;;;;;21.98;10.95;;;-3.60;97.00;;;;;;5097540;28;20028;-83
2023/12/04 09:29:28;;;;;;;21.40;11.65;;;-3.60;96.80;;;;;;5115320;28;20147;-87
2023/12/04 09:31:56;;;;;;;21.92;12.70;;;-3.60;96.60;;;;;;5116514;28;20441;-81
2023/12/04 09:34:22;;;;;;;22.42;11.40;;;-3.50;96.40;;;;;;5099315;28;20538;-83
2023/12/04 09:36:48;;;;;;;17.52;10.98;;;-3.50;96.20;;;;;;5116592;28;20019;-81
2023/12/04 09:39:14;;;;;;;26.38;12.20;;;-3.50;96.10;;;;;;5100183;28;20031;-80
2023/12/04 09:41:42;;;;;;;19.52;10.30;;;-3.40;96.00;;;;;;5107561;28;20035;-81
2023/12/04 09:44:08;;;;;;;18.70;12.05;;;-3.40;96.10;;;;;;5113279;28;20071;-80
2023/12/04 09:46:35;;;;;;;16.27;10.05;;;-3.40;95.90;;;;;;5113200;28;20536;-83
2023/12/04 09:49:04;;;;;;;17.80;10.73;;;-3.40;96.20;;;;;;5103866;28;20024;-84
2023/12/04 09:51:30;;;;;;;19.70;10.93;;;-3.40;96.00;;;;;;5108724;28;20400;-83
2023/12/04 09:53:59;;;;;;;23.35;12.07;;;-3.40;96.00;;;;;;5095840;28;20024;-82
2023/12/04 09:56:26;;;;;;;12.77;7.50;;;-3.40;95.90;;;;;;5093958;28;20090;-80
2023/12/04 09:58:53;;;;;;;;;;;-3.40;95.70;;;;;;5094414;28;20073;-79
2023/12/04 10:01:19;;;;;;;17.17;9.53;;;-3.40;95.60;;;;;;5093626;28;19904;-79
2023/12/04 10:03:46;;;;;;;25.25;12.07;;;-3.50;95.70;;;;;;5093552;28;20294;-78
2023/12/04 10:06:16;;;;;;;;;;;-3.50;96.10;;;;;;5113224;28;20110;-81
2023/12/04 10:08:44;;;;;;;19.40;11.20;;;-3.50;95.80;;;;;;5095259;28;19998;-78
2023/12/04 10:11:13;;;;;;;19.70;10.70;;;-3.50;95.90;;;;;;5112650;28;20093;-82
2023/12/04 10:13:41;;;;;;;20.98;12.38;;;-3.60;95.70;;;;;;5115874;28;20051;-80
2023/12/04 10:16:07;;;;;;;21.38;11.38;;;-3.60;95.70;;;;;;5115862;28;20160;-79
2023/12/04 10:18:34;;;;;;;20.48;13.40;;;-3.70;95.60;;;;;;5097513;28;20019;-81
2023/12/04 10:21:02;;;;;;;16.52;9.93;;;-3.70;95.30;;;;;;5097517;28;20032;-80
2023/12/04 10:23:42;;;;;;;20.80;10.27;;;-3.70;95.50;;;;;;5097415;28;20050;-80
2023/12/04 10:26:08;;;;;;;21.63;12.18;;;-3.80;95.70;;;;;;5115831;28;20076;-80
2023/12/04 10:28:35;;;;;;;23.27;12.23;;;-3.80;95.80;;;;;;5115507;28;20035;-78
2023/12/04 10:31:01;;;;;;;25.58;11.98;;;-3.80;96.10;;;;;;5115906;28;20396;-80
2023/12/04 10:33:30;;;;;;;23.60;12.82;;;-3.80;96.00;;;;;;5115669;28;20023;-80
2023/12/04 10:35:56;;;;;;;20.95;13.07;;;-3.80;95.70;;;;;;5097276;28;20501;-80
2023/12/04 10:38:22;;;;;;;23.67;12.43;;;-3.80;95.80;;;;;;5097198;28;20165;-80
2023/12/04 10:40:48;;;;;;;18.20;12.30;;;-3.80;95.70;;;;;;5114603;28;20088;-83
2023/12/04 10:43:15;;;;;;;23.73;11.48;;;-3.80;95.70;;;;;;5084439;28;20089;-83
2023/12/04 10:45:43;;;;;;;23.83;13.00;;;-3.80;95.90;;;;;;5115279;28;20396;-80
2023/12/04 10:48:10;;;;;;;;;;;-3.80;95.90;;;;;;5097535;28;20024;-81
2023/12/04 10:50:38;;;;;;;21.67;10.85;;;-3.80;95.80;;;;;;5115589;28;19919;-82
2023/12/04 10:53:07;;;;;;;20.15;11.75;;;-3.80;95.90;;;;;;5115801;28;20030;-81
2023/12/04 10:55:34;;;;;;;15.25;7.88;;;-3.80;96.00;;;;;;5116402;28;20027;-85
2023/12/04 10:58:05;;;;;;;18.65;11.20;;;-3.80;96.10;;;;;;5083021;28;20106;-80
2023/12/04 11:00:33;;;;;;;19.15;9.68;;;-3.80;96.00;;;;;;5115261;28;20086;-83
2023/12/04 11:03:08;;;;;;;30.58;15.40;;;-3.80;96.20;;;;;;5112744;28;20045;-81
2023/12/04 11:05:41;;;;;;;28.13;12.80;;;-3.90;96.20;;;;;;5104962;28;20064;-80
2023/12/04 11:08:14;;;;;;;29.15;15.15;;;-3.80;96.20;;;;;;5101094;28;20016;-80
2023/12/04 11:10:50;;;;;;;27.77;13.65;;;-3.80;96.10;;;;;;5101483;28;20103;-80
2023/12/04 11:13:26;;;;;;;25.63;12.38;;;-3.80;95.80;;;;;;5116091;28;20030;-79
2023/12/04 11:15:55;;;;;;;28.37;13.87;;;-3.80;95.90;;;;;;5083887;28;20057;-79
2023/12/04 11:18:24;;;;;;;23.85;12.98;;;-3.80;95.90;;;;;;5108764;28;20118;-80
2023/12/04 11:20:58;;;;;;;24.67;13.52;;;-3.80;95.90;;;;;;5107613;28;20088;-80
2023/12/04 11:23:26;;;;;;;24.52;10.13;;;-3.80;95.60;;;;;;5107797;28;20043;-80
2023/12/04 11:25:53;;;;;;;26.90;14.48;;;-3.90;95.60;;;;;;5096091;28;20079;-79
2023/12/04 11:28:19;;;;;;;18.33;10.07;;;-3.90;95.70;;;;;;5114761;28;20053;-82
2023/12/04 11:30:47;;;;;;;17.05;10.32;;;-3.90;95.90;;;;;;5114564;28;20382;-80
2023/12/04 11:33:12;;;;;;;19.58;10.23;;;-3.90;95.80;;;;;;5114908;28;20019;-80
2023/12/04 11:35:39;;;;;;;27.50;14.77;;;-3.90;95.90;;;;;;5114684;28;20041;-80
2023/12/04 11:38:09;;;;;;;20.30;12.25;;;-3.90;95.80;;;;;;5096428;28;20027;-83
2023/12/04 11:40:38;;;;;;;21.33;10.45;;;-3.90;95.80;;;;;;5114707;28;20038;-82
2023/12/04 11:43:27;;;;;;;28.33;12.63;;;-3.90;96.00;;;;;;5114161;28;20046;-80
2023/12/04 11:45:53;;;;;;;22.65;12.25;;;-3.90;96.10;;;;;;5113918;28;20397;-79
2023/12/04 11:48:26;;;;;;;25.38;11.57;;;-3.80;96.20;;;;;;5114936;28;20027;-82
2023/12/04 11:50:52;;;;;;;22.70;11.23;;;-3.80;96.10;;;;;;5115605;28;20024;-81
2023/12/04 11:53:18;;;;;;;25.67;15.20;;;-3.80;95.90;;;;;;5114771;28;20024;-79
2023/12/04 11:55:45;;;;;;;26.88;11.48;;;-3.90;95.80;;;;;;5114570;28;20027;-81
2023/12/04 11:58:12;;;;;;;22.88;13.00;;;-3.80;95.80;;;;;;5100536;28;20396;-81
2023/12/04 12:00:38;;;;;;;21.60;11.80;;;-3.90;95.70;;;;;;5115152;28;20031;-81
2023/12/04 12:03:06;;;;;;;29.65;12.95;;;-3.80;95.90;;;;;;5114142;28;20031;-81
2023/12/04 12:05:33;;;;;;;24.17;10.02;;;-3.80;95.80;;;;;;5096314;28;20026;-80
2023/12/04 12:08:03;;;;;;;18.08;11.82;;;-3.90;96.00;;;;;;5118646;28;20023;-82
2023/12/04 12:10:30;;;;;;;22.08;10.23;;;-3.90;96.10;;;;;;5117005;28;20057;-82
2023/12/04 12:12:56;;;;;;;25.80;12.88;;;-3.90;96.00;;;;;;5114342;28;20548;-81
2023/12/04 12:15:23;;;;;;;25.48;12.98;;;-3.90;95.90;;;;;;5115875;28;20157;-82
2023/12/04 12:17:51;;;;;;;21.92;12.35;;;-3.90;96.00;;;;;;5114795;28;20024;-81
2023/12/04 12:20:17;;;;;;;27.67;16.20;;;-3.90;95.90;;;;;;5098977;28;20068;-82
2023/12/04 12:22:43;;;;;;;23.13;13.07;;;-3.90;95.70;;;;;;5096565;28;20438;-80
2023/12/04 12:25:11;;;;;;;25.00;12.93;;;-4.00;95.00;;;;;;5098957;28;20625;-82
2023/12/04 12:27:37;;;;;;;28.90;15.35;;;-4.10;95.40;;;;;;5111762;28;20023;-82
2023/12/04 12:30:04;;;;;;;24.80;13.25;;;-4.10;95.70;;;;;;5121829;28;20048;-82